createdAt,value
2018-07-25T00:00:43.804Z,96.2
2018-07-25T00:01:43.709Z,96.3
2018-07-25T00:02:44.060Z,96.3
2018-07-25T00:03:43.977Z,96.3
2018-07-25T00:04:43.898Z,96.5
2018-07-25T00:05:43.800Z,96.6
2018-07-25T00:06:43.714Z,96.5
2018-07-25T00:07:43.632Z,96.5
2018-07-25T00:08:43.573Z,96.5
2018-07-25T00:09:43.479Z,96.4
2018-07-25T00:10:43.392Z,96.5
2018-07-25T00:11:43.298Z,96.4
2018-07-25T00:12:43.655Z,96.4
2018-07-25T00:13:43.583Z,96.2
2018-07-25T00:14:43.500Z,96.2
2018-07-25T00:15:43.425Z,96.3
2018-07-25T00:16:43.333Z,96.3
2018-07-25T00:17:43.254Z,96.4
2018-07-25T00:18:43.164Z,96.5
2018-07-25T00:19:43.075Z,96.5
2018-07-25T00:20:42.987Z,96.4
2018-07-25T00:21:42.894Z,96.4
2018-07-25T00:22:43.222Z,96.4
2018-07-25T00:23:43.153Z,96.6
2018-07-25T00:24:43.044Z,96.7
2018-07-25T00:25:42.950Z,96.8
2018-07-25T00:26:42.853Z,96.8
2018-07-25T00:27:42.768Z,96.9
2018-07-25T00:28:42.679Z,96.9
2018-07-25T00:29:42.613Z,97.1
2018-07-25T00:30:42.514Z,97.1
2018-07-25T00:31:42.427Z,97.1
2018-07-25T00:32:42.786Z,97.2
2018-07-25T00:33:42.684Z,97.2
2018-07-25T00:34:42.588Z,97.3
2018-07-25T00:35:42.508Z,97.3
2018-07-25T00:36:42.414Z,97.3
2018-07-25T00:37:42.313Z,97.4
2018-07-25T00:38:42.224Z,97.4
2018-07-25T00:39:42.134Z,97.4
2018-07-25T00:40:42.060Z,97.4
2018-07-25T00:41:41.959Z,97.4
2018-07-25T00:42:42.280Z,97.4
2018-07-25T00:43:42.206Z,97.5
2018-07-25T00:44:42.127Z,97.5
2018-07-25T00:45:42.042Z,97.9
2018-07-25T00:46:41.958Z,97.6
2018-07-25T00:47:41.860Z,97.6
2018-07-25T00:48:41.824Z,97.9
2018-07-25T00:49:41.757Z,97.5
2018-07-25T00:50:41.696Z,97.5
2018-07-25T00:51:41.603Z,97.5
2018-07-25T00:52:41.943Z,97.7
2018-07-25T00:53:41.862Z,97.7
2018-07-25T00:54:41.764Z,97.7
2018-07-25T00:55:41.680Z,97.7
2018-07-25T00:56:41.597Z,97.8
2018-07-25T00:57:41.488Z,97.8
2018-07-25T00:58:41.397Z,97.7
2018-07-25T00:59:41.304Z,97.8
2018-07-25T01:00:41.226Z,97.9
2018-07-25T01:01:41.142Z,98
2018-07-25T01:02:41.507Z,98
2018-07-25T01:03:41.412Z,98
2018-07-25T01:04:41.329Z,98
2018-07-25T01:05:41.232Z,98.2
2018-07-25T01:06:41.135Z,98.2
2018-07-25T01:07:41.060Z,98.1
2018-07-25T01:08:40.966Z,98.1
2018-07-25T01:09:40.869Z,98.3
2018-07-25T01:10:40.779Z,98.3
2018-07-25T01:11:40.697Z,98.3
2018-07-25T01:12:41.080Z,98.4
2018-07-25T01:13:40.976Z,98.4
2018-07-25T01:14:40.895Z,98.3
2018-07-25T01:15:40.798Z,98.3
2018-07-25T01:16:40.699Z,98.3
2018-07-25T01:17:40.613Z,98.3
2018-07-25T01:18:40.530Z,98.5
2018-07-25T01:19:43.154Z,98.5
2018-07-25T01:20:43.055Z,98.5
2018-07-25T01:21:42.961Z,98.4
2018-07-25T01:22:43.320Z,98.3
2018-07-25T01:23:43.248Z,98.3
2018-07-25T01:24:44.149Z,98.3
2018-07-25T01:25:44.047Z,98.4
2018-07-25T01:26:43.965Z,98.3
2018-07-25T01:27:43.898Z,98.3
2018-07-25T01:28:43.800Z,98.4
2018-07-25T01:29:43.740Z,98.6
2018-07-25T01:30:43.653Z,98.6
2018-07-25T01:31:43.550Z,98.5
2018-07-25T01:32:44.889Z,98.6
2018-07-25T01:33:44.795Z,98.6
2018-07-25T01:34:44.732Z,98.6
2018-07-25T01:35:47.501Z,98.6
2018-07-25T01:36:47.405Z,98.7
2018-07-25T01:37:47.319Z,98.8
2018-07-25T01:38:48.227Z,98.8
2018-07-25T01:39:51.045Z,98.7
2018-07-25T01:40:52.160Z,98.7
2018-07-25T01:41:52.063Z,98.6
2018-07-25T01:42:52.373Z,98.6
2018-07-25T01:43:52.283Z,98.6
2018-07-25T01:44:52.210Z,98.6
2018-07-25T01:45:52.117Z,98.7
2018-07-25T01:46:53.041Z,98.6
2018-07-25T01:47:53.948Z,98.5
2018-07-25T01:48:56.831Z,98.4
2018-07-25T01:49:56.750Z,98.5
2018-07-25T01:50:57.667Z,98.4
2018-07-25T01:51:58.573Z,98.4
2018-07-25T01:52:59.174Z,98.3
2018-07-25T01:53:59.073Z,98.4
2018-07-25T01:54:59.209Z,98.4
2018-07-25T01:55:59.110Z,98.3
2018-07-25T01:56:59.007Z,98.3
2018-07-25T01:57:58.896Z,98.2
2018-07-25T01:58:58.795Z,98.2
2018-07-25T01:59:58.917Z,98.2
2018-07-25T02:00:58.830Z,98.1
2018-07-25T02:01:58.778Z,98
2018-07-25T02:02:59.114Z,98.1
2018-07-25T02:04:01.025Z,98.1
2018-07-25T02:05:00.945Z,98.1
2018-07-25T02:06:00.866Z,98.3
2018-07-25T02:07:00.762Z,98.2
2018-07-25T02:08:00.673Z,98.2
2018-07-25T02:09:00.661Z,98.2
2018-07-25T02:10:00.561Z,98.1
2018-07-25T02:11:03.114Z,98.5
2018-07-25T02:12:04.050Z,98.3
2018-07-25T02:13:04.388Z,98.4
2018-07-25T02:14:07.104Z,98.5
2018-07-25T02:15:07.017Z,98.5
2018-07-25T02:16:06.942Z,98.8
2018-07-25T02:17:06.854Z,98.5
2018-07-25T02:18:06.761Z,98.5
2018-07-25T02:19:12.672Z,98.5
2018-07-25T02:20:12.564Z,98.4
2018-07-25T02:21:12.510Z,98.4
2018-07-25T02:22:12.632Z,98.4
2018-07-25T02:23:13.002Z,98.4
2018-07-25T02:24:12.945Z,98.4
2018-07-25T02:25:13.848Z,98.4
2018-07-25T02:26:13.762Z,98.4
2018-07-25T02:27:13.671Z,98.4
2018-07-25T02:28:14.284Z,98.3
2018-07-25T02:29:14.183Z,98.5
2018-07-25T02:30:14.092Z,98.5
2018-07-25T02:31:13.992Z,98.5
2018-07-25T02:32:13.948Z,98.7
2018-07-25T02:33:14.317Z,98.5
2018-07-25T02:34:14.234Z,98.6
2018-07-25T02:35:14.173Z,98.6
2018-07-25T02:36:14.090Z,98.5
2018-07-25T02:37:14.016Z,98.4
2018-07-25T02:38:13.919Z,98.5
2018-07-25T02:39:13.855Z,98.5
2018-07-25T02:40:13.782Z,98.6
2018-07-25T02:41:13.696Z,98.7
2018-07-25T02:42:13.605Z,98.6
2018-07-25T02:43:13.960Z,98.6
2018-07-25T02:44:16.779Z,98.7
2018-07-25T02:45:16.717Z,98.7
2018-07-25T02:46:16.643Z,98.7
2018-07-25T02:47:16.597Z,98.8
2018-07-25T02:48:16.513Z,98.8
2018-07-25T02:49:16.454Z,98.9
2018-07-25T02:50:16.358Z,98.9
2018-07-25T02:51:19.246Z,98.9
2018-07-25T02:52:19.412Z,98.8
2018-07-25T02:53:19.754Z,98.8
2018-07-25T02:54:19.676Z,98.9
2018-07-25T02:55:22.797Z,98.8
2018-07-25T02:56:22.714Z,98.8
2018-07-25T02:57:22.666Z,98.8
2018-07-25T02:58:22.584Z,98.8
2018-07-25T02:59:25.398Z,98.9
2018-07-25T03:00:25.342Z,98.9
2018-07-25T03:01:25.247Z,99
2018-07-25T03:02:28.089Z,98.9
2018-07-25T03:03:28.676Z,99
2018-07-25T03:04:28.576Z,99
2018-07-25T03:05:28.501Z,99.1
2018-07-25T03:06:28.414Z,99.3
2018-07-25T03:07:28.352Z,99.4
2018-07-25T03:08:31.256Z,99.4
2018-07-25T03:09:31.176Z,99.4
2018-07-25T03:10:32.095Z,99.4
2018-07-25T03:11:32.688Z,99.4
2018-07-25T03:12:32.665Z,99.4
2018-07-25T03:13:33.019Z,99.3
2018-07-25T03:14:33.129Z,99.4
2018-07-25T03:15:33.268Z,99.4
2018-07-25T03:16:33.363Z,99.5
2018-07-25T03:17:33.376Z,99.5
2018-07-25T03:18:33.366Z,99.5
2018-07-25T03:19:33.293Z,99.5
2018-07-25T03:20:33.420Z,99.6
2018-07-25T03:21:33.353Z,99.6
2018-07-25T03:22:33.303Z,99.7
2018-07-25T03:23:33.676Z,99.8
2018-07-25T03:24:33.593Z,99.8
2018-07-25T03:25:33.511Z,99.8
2018-07-25T03:26:34.426Z,99.9
2018-07-25T03:27:34.554Z,99.9
2018-07-25T03:28:34.499Z,99.9
2018-07-25T03:29:34.415Z,99.9
2018-07-25T03:30:37.872Z,99.9
2018-07-25T03:31:38.243Z,99.9
2018-07-25T03:32:38.485Z,99.9
2018-07-25T03:33:38.909Z,99.9
2018-07-25T03:34:38.820Z,99.9
2018-07-25T03:35:38.723Z,99.9
2018-07-25T03:36:38.629Z,99.9
2018-07-25T03:37:42.272Z,99.9
2018-07-25T03:38:45.229Z,99.9
2018-07-25T03:39:45.130Z,99.9
2018-07-25T03:40:45.040Z,99.9
2018-07-25T03:41:44.954Z,99.9
2018-07-25T03:42:45.087Z,99.9
2018-07-25T03:43:45.477Z,99.9
2018-07-25T03:44:45.443Z,99.9
2018-07-25T03:45:45.562Z,99.9
2018-07-25T03:46:45.462Z,99.9
2018-07-25T03:47:45.377Z,99.9
2018-07-25T03:48:45.285Z,99.9
2018-07-25T03:49:47.202Z,99.9
2018-07-25T03:50:47.095Z,99.9
2018-07-25T03:51:47.002Z,99.9
2018-07-25T03:52:46.908Z,99.9
2018-07-25T03:53:47.529Z,99.9
2018-07-25T03:54:47.473Z,99.9
2018-07-25T03:55:47.375Z,99.9
2018-07-25T03:56:50.323Z,99.9
2018-07-25T03:57:50.222Z,99.9
2018-07-25T03:58:50.339Z,99.9
2018-07-25T03:59:50.484Z,99.9
2018-07-25T04:00:50.382Z,99.9
2018-07-25T04:01:50.374Z,99.9
2018-07-25T04:02:50.338Z,99.9
2018-07-25T04:03:53.694Z,99.9
2018-07-25T04:04:53.636Z,99.9
2018-07-25T04:05:53.768Z,99.9
2018-07-25T04:06:53.888Z,99.9
2018-07-25T04:07:53.789Z,99.9
2018-07-25T04:08:53.918Z,99.9
2018-07-25T04:09:53.849Z,99.9
2018-07-25T04:10:53.766Z,99.9
2018-07-25T04:11:53.675Z,99.9
2018-07-25T04:12:53.598Z,99.9
2018-07-25T04:13:59.974Z,99.9
2018-07-25T04:14:59.891Z,99.9
2018-07-25T04:15:59.803Z,99.9
2018-07-25T04:16:59.692Z,99.9
2018-07-25T04:18:02.607Z,99.9
2018-07-25T04:19:02.511Z,99.9
2018-07-25T04:20:02.440Z,99.9
2018-07-25T04:21:02.793Z,99.9
2018-07-25T04:22:02.685Z,99.9
2018-07-25T04:23:02.599Z,99.9
2018-07-25T04:24:02.944Z,99.9
2018-07-25T04:25:02.871Z,99.9
2018-07-25T04:26:02.809Z,99.9
2018-07-25T04:27:02.923Z,99.9
2018-07-25T04:28:03.042Z,99.9
2018-07-25T04:29:02.944Z,99.9
2018-07-25T04:30:02.854Z,99.9
2018-07-25T04:31:02.755Z,99.9
2018-07-25T04:32:02.667Z,99.9
2018-07-25T04:33:02.793Z,99.9
2018-07-25T04:34:03.127Z,99.9
2018-07-25T04:35:03.038Z,99.9
2018-07-25T04:36:03.028Z,99.9
2018-07-25T04:37:02.940Z,99.9
2018-07-25T04:38:03.840Z,99.9
2018-07-25T04:39:03.741Z,99.9
2018-07-25T04:40:03.641Z,99.9
2018-07-25T04:41:03.539Z,99.9
2018-07-25T04:42:03.458Z,99.9
2018-07-25T04:43:03.366Z,99.9
2018-07-25T04:44:06.551Z,99.9
2018-07-25T04:45:06.457Z,99.9
2018-07-25T04:46:06.628Z,99.9
2018-07-25T04:47:06.672Z,99.9
2018-07-25T04:48:06.583Z,99.9
2018-07-25T04:49:06.488Z,99.9
2018-07-25T04:50:06.381Z,99.9
2018-07-25T04:51:06.294Z,99.9
2018-07-25T04:52:06.217Z,99.9
2018-07-25T04:53:06.134Z,99.9
2018-07-25T04:54:06.490Z,99.9
2018-07-25T04:55:06.397Z,99.9
2018-07-25T04:56:06.590Z,99.9
2018-07-25T04:57:06.575Z,99.9
2018-07-25T04:58:06.496Z,99.9
2018-07-25T04:59:06.393Z,99.9
2018-07-25T05:00:06.295Z,99.9
2018-07-25T05:01:06.196Z,99.9
2018-07-25T05:02:06.092Z,99.9
2018-07-25T05:03:05.995Z,99.9
2018-07-25T05:04:08.310Z,99.9
2018-07-25T05:05:08.224Z,99.9
2018-07-25T05:06:08.132Z,99.9
2018-07-25T05:07:11.355Z,99.9
2018-07-25T05:08:12.753Z,99.9
2018-07-25T05:09:12.659Z,99.9
2018-07-25T05:10:12.571Z,99.9
2018-07-25T05:11:12.474Z,99.9
2018-07-25T05:12:15.190Z,99.9
2018-07-25T05:13:15.800Z,99.9
2018-07-25T05:14:16.403Z,99.9
2018-07-25T05:15:16.305Z,99.9
2018-07-25T05:16:16.227Z,99.9
2018-07-25T05:17:19.342Z,99.9
2018-07-25T05:18:19.558Z,99.9
2018-07-25T05:19:19.452Z,99.9
2018-07-25T05:20:19.581Z,99.6
2018-07-25T05:21:28.168Z,99.6
2018-07-25T05:22:28.339Z,99.5
2018-07-25T05:23:28.473Z,99.3
2018-07-25T05:24:28.808Z,99.3
2018-07-25T05:25:30.382Z,99.2
2018-07-25T05:26:31.281Z,98.8
2018-07-25T05:27:31.195Z,98.5
2018-07-25T05:28:34.200Z,98.4
2018-07-25T05:29:34.097Z,98.2
2018-07-25T05:30:35.025Z,98.1
2018-07-25T05:31:35.612Z,97.9
2018-07-25T05:32:35.744Z,97.5
2018-07-25T05:33:35.687Z,97.2
2018-07-25T05:34:39.016Z,97.1
2018-07-25T05:35:38.928Z,97
2018-07-25T05:36:38.883Z,96.7
2018-07-25T05:37:38.787Z,96.6
2018-07-25T05:38:38.948Z,96.4
2018-07-25T05:39:41.582Z,96.3
2018-07-25T05:40:41.491Z,95.7
2018-07-25T05:41:41.406Z,95.1
2018-07-25T05:42:41.322Z,95
2018-07-25T05:43:42.825Z,94.7
2018-07-25T05:44:43.476Z,94.7
2018-07-25T05:45:43.587Z,94.4
2018-07-25T05:46:43.493Z,94
2018-07-25T05:47:43.396Z,94
2018-07-25T05:48:43.339Z,93.5
2018-07-25T05:49:43.252Z,93.6
2018-07-25T05:50:44.170Z,93.7
2018-07-25T05:51:52.708Z,93.8
2018-07-25T05:52:52.604Z,93.6
2018-07-25T05:53:53.535Z,93.1
2018-07-25T05:54:58.263Z,93
2018-07-25T05:55:58.182Z,93.4
2018-07-25T05:56:58.087Z,92.8
2018-07-25T05:57:57.983Z,92.7
2018-07-25T05:58:57.931Z,92.4
2018-07-25T05:59:57.837Z,92.6
2018-07-25T06:00:57.734Z,92
2018-07-25T06:02:04.597Z,91.9
2018-07-25T06:03:05.415Z,91.9
2018-07-25T06:04:06.033Z,91.7
2018-07-25T06:05:06.819Z,91.7
2018-07-25T06:06:06.962Z,91.7
2018-07-25T06:07:10.766Z,91.4
2018-07-25T06:08:11.121Z,91
2018-07-25T06:09:11.063Z,90.8
2018-07-25T06:10:10.974Z,90.7
2018-07-25T06:11:10.879Z,91
2018-07-25T06:12:10.775Z,90.6
2018-07-25T06:13:13.536Z,90.5
2018-07-25T06:14:18.085Z,90.4
2018-07-25T06:15:22.535Z,90.4
2018-07-25T06:16:22.452Z,90.4
2018-07-25T06:17:22.402Z,90.3
2018-07-25T06:18:26.188Z,89.6
2018-07-25T06:19:26.191Z,89.5
2018-07-25T06:20:27.406Z,89.9
2018-07-25T06:21:30.232Z,89.2
2018-07-25T06:22:30.154Z,89.3
2018-07-25T06:23:30.997Z,88.7
2018-07-25T06:24:30.915Z,88.6
2018-07-25T06:25:34.580Z,88.3
2018-07-25T06:26:34.715Z,87.1
2018-07-25T06:27:34.623Z,87.4
2018-07-25T06:28:37.514Z,87.5
2018-07-25T06:29:38.365Z,86
2018-07-25T06:30:38.275Z,86.5
2018-07-25T06:31:38.417Z,86.7
2018-07-25T06:32:47.480Z,86
2018-07-25T06:33:47.612Z,86.1
2018-07-25T06:34:51.768Z,85.8
2018-07-25T06:35:56.229Z,86.1
2018-07-25T06:36:56.133Z,85.7
2018-07-25T06:37:56.436Z,85.8
2018-07-25T06:38:56.600Z,85.7
2018-07-25T06:39:59.322Z,84.9
2018-07-25T06:41:02.155Z,85.1
2018-07-25T06:42:02.080Z,84.3
2018-07-25T06:43:01.983Z,83.3
2018-07-25T06:44:01.877Z,83.4
2018-07-25T06:45:01.819Z,83.1
2018-07-25T06:46:04.062Z,83.4
2018-07-25T06:47:04.653Z,83
2018-07-25T06:48:04.547Z,83.1
2018-07-25T06:49:04.468Z,83.3
2018-07-25T06:50:05.080Z,83.9
2018-07-25T06:51:04.998Z,82
2018-07-25T06:52:05.155Z,81.7
2018-07-25T06:53:05.070Z,81
2018-07-25T06:54:04.979Z,80.3
2018-07-25T06:55:05.128Z,81.7
2018-07-25T06:56:05.504Z,81.6
2018-07-25T06:57:08.148Z,81.2
2018-07-25T06:58:13.793Z,81.1
2018-07-25T06:59:22.485Z,81.6
2018-07-25T07:00:22.414Z,80.3
2018-07-25T07:01:22.547Z,80.8
2018-07-25T07:02:22.470Z,79.9
2018-07-25T07:03:22.373Z,78.8
2018-07-25T07:04:22.282Z,77.7
2018-07-25T07:05:22.423Z,79.4
2018-07-25T07:06:23.026Z,80.1
2018-07-25T07:07:22.935Z,78.9
2018-07-25T07:08:22.840Z,79.2
2018-07-25T07:09:22.968Z,79.2
2018-07-25T07:10:22.891Z,78.3
2018-07-25T07:11:22.801Z,79.6
2018-07-25T07:12:23.726Z,79.5
2018-07-25T07:13:23.618Z,80
2018-07-25T07:14:23.746Z,80.5
2018-07-25T07:15:24.291Z,79
2018-07-25T07:16:25.944Z,77.5
2018-07-25T07:17:29.707Z,77.1
2018-07-25T07:18:29.731Z,77.4
2018-07-25T07:19:29.637Z,78.1
2018-07-25T07:20:29.574Z,77.5
2018-07-25T07:21:31.698Z,78.5
2018-07-25T07:22:31.621Z,78.2
2018-07-25T07:23:32.767Z,77.1
2018-07-25T07:24:32.690Z,76.7
2018-07-25T07:25:35.587Z,77.6
2018-07-25T07:26:36.927Z,77.3
2018-07-25T07:27:45.705Z,77.5
2018-07-25T07:28:45.610Z,77.1
2018-07-25T07:29:45.511Z,76.9
2018-07-25T07:30:45.451Z,76.2
2018-07-25T07:31:48.241Z,74.7
2018-07-25T07:32:48.145Z,74.8
2018-07-25T07:33:48.039Z,74.8
2018-07-25T07:34:57.351Z,74.2
2018-07-25T07:35:57.590Z,73.8
2018-07-25T07:37:00.655Z,74.8
2018-07-25T07:38:00.575Z,74.4
2018-07-25T07:39:03.211Z,73.7
2018-07-25T07:40:03.134Z,74.3
2018-07-25T07:41:05.805Z,74.6
2018-07-25T07:42:05.704Z,75.4
2018-07-25T07:43:05.844Z,75.2
2018-07-25T07:44:06.210Z,74.1
2018-07-25T07:45:09.165Z,73.4
2018-07-25T07:46:09.107Z,72.8
2018-07-25T07:47:13.147Z,71
2018-07-25T07:48:16.073Z,72.5
2018-07-25T07:49:16.212Z,73.2
2018-07-25T07:50:16.117Z,74.2
2018-07-25T07:51:18.812Z,74.3
2018-07-25T07:52:20.746Z,71.3
2018-07-25T07:53:23.802Z,71.2
2018-07-25T07:54:23.791Z,72.5
2018-07-25T07:55:23.709Z,72.1
2018-07-25T07:56:24.644Z,74
2018-07-25T07:57:25.248Z,72.4
2018-07-25T07:58:25.611Z,74.3
2018-07-25T07:59:25.943Z,73.9
2018-07-25T08:00:29.054Z,73.8
2018-07-25T08:01:29.458Z,73.7
2018-07-25T08:02:29.383Z,74.2
2018-07-25T08:03:29.478Z,74.5
2018-07-25T08:04:29.554Z,72.8
2018-07-25T08:05:33.427Z,73.4
2018-07-25T08:06:34.575Z,71.7
2018-07-25T08:07:35.159Z,70.3
2018-07-25T08:08:35.066Z,70.3
2018-07-25T08:09:35.180Z,69.4
2018-07-25T08:10:35.436Z,69.7
2018-07-25T08:11:35.519Z,71.8
2018-07-25T08:12:35.640Z,72.5
2018-07-25T08:13:35.546Z,69.2
2018-07-25T08:14:35.450Z,70.9
2018-07-25T08:15:41.692Z,71.4
2018-07-25T08:16:41.620Z,72
2018-07-25T08:17:42.617Z,72.1
2018-07-25T08:18:43.006Z,71.6
2018-07-25T08:19:43.143Z,69
2018-07-25T08:20:43.298Z,70.3
2018-07-25T08:21:53.049Z,67.7
2018-07-25T08:22:52.961Z,69.6
2018-07-25T08:23:53.081Z,68.7
2018-07-25T08:24:52.996Z,70.1
2018-07-25T08:25:53.140Z,68.3
2018-07-25T08:26:53.052Z,67.5
2018-07-25T08:27:54.644Z,65.8
2018-07-25T08:28:57.510Z,67.1
2018-07-25T08:29:57.410Z,67.9
2018-07-25T08:31:01.353Z,68
2018-07-25T08:32:02.281Z,66.8
2018-07-25T08:33:02.202Z,64.3
2018-07-25T08:34:07.534Z,66.6
2018-07-25T08:35:07.436Z,66.4
2018-07-25T08:36:07.402Z,67.2
2018-07-25T08:37:09.887Z,67
2018-07-25T08:38:10.236Z,66.6
2018-07-25T08:39:10.146Z,63.6
2018-07-25T08:40:13.201Z,63.6
2018-07-25T08:41:13.449Z,64.3
2018-07-25T08:42:16.422Z,64.6
2018-07-25T08:43:16.999Z,68.1
2018-07-25T08:44:16.904Z,68.7
2018-07-25T08:45:19.452Z,67.8
2018-07-25T08:46:19.585Z,68.3
2018-07-25T08:47:19.565Z,66.6
2018-07-25T08:48:20.170Z,62.6
2018-07-25T08:49:20.754Z,64
2018-07-25T08:50:20.659Z,65.4
2018-07-25T08:51:23.121Z,65.4
2018-07-25T08:52:23.633Z,65.7
2018-07-25T08:53:23.627Z,66.2
2018-07-25T08:54:26.507Z,67
2018-07-25T08:55:26.407Z,65.8
2018-07-25T08:56:29.269Z,64.5
2018-07-25T08:57:29.202Z,65.7
2018-07-25T08:58:29.767Z,64.8
2018-07-25T08:59:29.884Z,64.3
2018-07-25T09:00:30.072Z,63.8
2018-07-25T09:01:30.041Z,66
2018-07-25T09:02:29.939Z,65.1
2018-07-25T09:03:31.878Z,65.9
2018-07-25T09:04:31.781Z,67.1
2018-07-25T09:05:34.811Z,67.7
2018-07-25T09:06:38.661Z,68.8
2018-07-25T09:07:42.095Z,69.9
2018-07-25T09:08:43.025Z,67
2018-07-25T09:09:46.192Z,66.3
2018-07-25T09:10:49.051Z,64.7
2018-07-25T09:11:51.859Z,65.3
2018-07-25T09:12:52.346Z,66.4
2018-07-25T09:13:52.299Z,63.4
2018-07-25T09:14:52.215Z,66.7
2018-07-25T09:15:52.124Z,65.4
2018-07-25T09:16:52.703Z,64.7
2018-07-25T09:17:53.531Z,63.5
2018-07-25T09:18:56.537Z,63.7
2018-07-25T09:19:57.220Z,64
2018-07-25T09:20:58.119Z,66.2
2018-07-25T09:22:03.887Z,65.8
2018-07-25T09:23:04.797Z,64
2018-07-25T09:24:04.918Z,64.6
2018-07-25T09:25:04.931Z,66
2018-07-25T09:26:04.863Z,63.2
2018-07-25T09:27:06.457Z,64.5
2018-07-25T09:28:12.188Z,65.7
2018-07-25T09:29:14.921Z,63.9
2018-07-25T09:30:17.699Z,66.3
2018-07-25T09:31:18.655Z,64
2018-07-25T09:32:21.185Z,64
2018-07-25T09:33:24.125Z,63.6
2018-07-25T09:34:24.783Z,65.6
2018-07-25T09:35:25.212Z,65.2
2018-07-25T09:36:25.197Z,66.5
2018-07-25T09:37:26.932Z,66.7
2018-07-25T09:38:28.528Z,67.1
2018-07-25T09:39:29.365Z,65.3
2018-07-25T09:40:29.700Z,67
2018-07-25T09:41:30.714Z,66.8
2018-07-25T09:42:30.780Z,67.1
2018-07-25T09:43:34.488Z,66.1
2018-07-25T09:44:34.800Z,66.7
2018-07-25T09:45:38.958Z,66.8
2018-07-25T09:46:40.257Z,67.1
2018-07-25T09:47:41.075Z,66.8
2018-07-25T09:48:41.826Z,66.4
2018-07-25T09:49:42.581Z,67.2
2018-07-25T09:50:45.473Z,68.8
2018-07-25T09:51:45.485Z,68.7
2018-07-25T09:52:45.911Z,68.9
2018-07-25T09:53:47.224Z,66
2018-07-25T09:54:53.541Z,66.7
2018-07-25T09:55:54.963Z,66.3
2018-07-25T09:56:55.248Z,66.2
2018-07-25T09:57:55.283Z,65.2
2018-07-25T09:58:55.683Z,62.9
2018-07-25T09:59:58.850Z,60.8
2018-07-25T10:00:59.291Z,61.8
2018-07-25T10:01:59.470Z,60.1
2018-07-25T10:03:03.684Z,61
2018-07-25T10:04:05.520Z,62.7
2018-07-25T10:05:07.817Z,62
2018-07-25T10:06:07.822Z,63.6
2018-07-25T10:07:11.080Z,64.7
2018-07-25T10:08:11.332Z,63.8
2018-07-25T10:09:14.459Z,65.3
2018-07-25T10:10:19.477Z,66
2018-07-25T10:11:19.756Z,66.6
2018-07-25T10:12:19.978Z,65.3
2018-07-25T10:13:24.309Z,62.7
2018-07-25T10:14:28.545Z,59.5
2018-07-25T10:15:30.286Z,59.1
2018-07-25T10:16:30.294Z,62.8
2018-07-25T10:17:33.541Z,61.9
2018-07-25T10:18:33.589Z,60.4
2018-07-25T10:19:33.639Z,59.7
2018-07-25T10:20:38.093Z,58.1
2018-07-25T10:21:38.671Z,57.3
2018-07-25T10:22:42.380Z,58.3
2018-07-25T10:23:44.595Z,57.7
2018-07-25T10:24:46.054Z,58.5
2018-07-25T10:25:50.223Z,57.9
2018-07-25T10:26:53.322Z,58.7
2018-07-25T10:27:53.324Z,57.9
2018-07-25T10:28:53.356Z,56.9
2018-07-25T10:29:54.239Z,57
2018-07-25T10:30:58.683Z,56.9
2018-07-25T10:31:58.740Z,56.9
2018-07-25T10:33:00.798Z,57.3
2018-07-25T10:34:05.794Z,58.5
2018-07-25T10:35:07.750Z,59.5
2018-07-25T10:36:07.772Z,59.3
2018-07-25T10:37:10.509Z,58.8
2018-07-25T10:38:10.706Z,59.2
2018-07-25T10:39:11.038Z,59.4
2018-07-25T10:40:11.356Z,60.9
2018-07-25T10:41:11.855Z,59.4
2018-07-25T10:42:16.495Z,57.9
2018-07-25T10:43:16.464Z,59.8
2018-07-25T10:44:16.455Z,60.9
2018-07-25T10:45:16.423Z,59.7
2018-07-25T10:46:20.092Z,58.2
2018-07-25T10:47:20.101Z,57.9
2018-07-25T10:48:20.333Z,58.4
2018-07-25T10:49:20.327Z,58.7
2018-07-25T10:50:20.558Z,58.6
2018-07-25T10:51:21.984Z,59.8
2018-07-25T10:52:24.769Z,56.3
2018-07-25T10:53:25.024Z,54.7
2018-07-25T10:54:25.047Z,56.6
2018-07-25T10:55:25.056Z,56.6
2018-07-25T10:56:25.012Z,55.7
2018-07-25T10:57:24.961Z,56.5
2018-07-25T10:58:24.922Z,56.2
2018-07-25T10:59:30.377Z,56.8
2018-07-25T11:00:32.869Z,57.1
2018-07-25T11:01:33.649Z,59
2018-07-25T11:02:33.676Z,59.4
2018-07-25T11:03:33.714Z,59.2
2018-07-25T11:04:36.402Z,58.8
2018-07-25T11:05:38.019Z,59.6
2018-07-25T11:06:39.079Z,61.1
2018-07-25T11:07:39.777Z,60.9
2018-07-25T11:08:39.840Z,61.1
2018-07-25T11:09:41.779Z,61.6
2018-07-25T11:10:44.923Z,61.5
2018-07-25T11:11:45.495Z,62.1
2018-07-25T11:12:48.996Z,61.3
2018-07-25T11:13:48.952Z,61.6
2018-07-25T11:14:52.057Z,62.4
2018-07-25T11:15:52.263Z,60.9
2018-07-25T11:16:53.253Z,60.3
2018-07-25T11:17:53.196Z,59.9
2018-07-25T11:18:53.716Z,60.1
2018-07-25T11:19:59.247Z,60.7
2018-07-25T11:20:59.228Z,62.5
2018-07-25T11:21:59.917Z,63.4
2018-07-25T11:23:00.150Z,63.3
2018-07-25T11:24:00.481Z,62.1
2018-07-25T11:25:00.688Z,63.9
2018-07-25T11:26:00.903Z,64.4
2018-07-25T11:27:04.700Z,64.5
2018-07-25T11:28:05.368Z,61.2
2018-07-25T11:29:05.320Z,61.8
2018-07-25T11:30:05.447Z,61.9
2018-07-25T11:31:06.065Z,63.7
2018-07-25T11:32:07.609Z,62.4
2018-07-25T11:33:07.533Z,62.2
2018-07-25T11:34:11.281Z,62.9
2018-07-25T11:35:11.377Z,63.3
2018-07-25T11:36:17.403Z,64.3
2018-07-25T11:37:17.315Z,64.6
2018-07-25T11:38:17.701Z,64.5
2018-07-25T11:39:17.894Z,64.6
2018-07-25T11:40:17.792Z,63.5
2018-07-25T11:41:19.392Z,62.8
2018-07-25T11:42:19.733Z,64.2
2018-07-25T11:43:19.643Z,64.4
2018-07-25T11:44:20.232Z,66.8
2018-07-25T11:45:20.138Z,63.6
2018-07-25T11:46:21.309Z,63.6
2018-07-25T11:47:21.219Z,64.2
2018-07-25T11:48:22.115Z,63.5
2018-07-25T11:49:23.230Z,63.6
2018-07-25T11:50:23.550Z,63.8
2018-07-25T11:51:23.700Z,64.2
2018-07-25T11:52:24.057Z,62.9
2018-07-25T11:53:23.978Z,63.7
2018-07-25T11:54:23.884Z,63.3
2018-07-25T11:55:24.131Z,63.7
2018-07-25T11:56:24.393Z,63.9
2018-07-25T11:57:24.289Z,64.2
2018-07-25T11:58:24.195Z,63.9
2018-07-25T11:59:24.119Z,63.3
2018-07-25T12:00:24.039Z,62.8
2018-07-25T12:01:24.278Z,64.1
2018-07-25T12:02:24.943Z,63
2018-07-25T12:03:24.837Z,62.2
2018-07-25T12:04:24.766Z,63.4
2018-07-25T12:05:24.706Z,64
2018-07-25T12:06:24.853Z,63.7
2018-07-25T12:07:25.246Z,62.2
2018-07-25T12:08:25.484Z,63.7
2018-07-25T12:09:27.148Z,64
2018-07-25T12:10:28.566Z,62.1
2018-07-25T12:11:28.607Z,62.8
2018-07-25T12:12:29.162Z,65.1
2018-07-25T12:13:29.154Z,63.8
2018-07-25T12:14:29.177Z,62.9
2018-07-25T12:15:29.147Z,63.7
2018-07-25T12:16:29.104Z,64.4
2018-07-25T12:17:30.767Z,63.9
2018-07-25T12:18:32.322Z,62.9
2018-07-25T12:19:32.342Z,63.4
2018-07-25T12:20:32.339Z,62.3
2018-07-25T12:21:32.357Z,62.7
2018-07-25T12:22:33.020Z,63.2
2018-07-25T12:23:33.070Z,63.4
2018-07-25T12:24:33.112Z,63.8
2018-07-25T12:25:33.265Z,63.3
2018-07-25T12:26:34.686Z,63.9
2018-07-25T12:27:35.034Z,64.5
2018-07-25T12:28:35.180Z,64.1
2018-07-25T12:29:35.261Z,64.2
2018-07-25T12:30:35.347Z,62.6
2018-07-25T12:31:35.416Z,63.1
2018-07-25T12:32:38.034Z,63.2
2018-07-25T12:33:39.358Z,62.7
2018-07-25T12:34:39.387Z,62.6
2018-07-25T12:35:39.390Z,63.1
2018-07-25T12:36:39.529Z,62.8
2018-07-25T12:37:39.694Z,62.4
2018-07-25T12:38:39.692Z,62.3
2018-07-25T12:39:39.709Z,62
2018-07-25T12:40:41.512Z,63.4
2018-07-25T12:41:43.493Z,64.3
2018-07-25T12:42:51.297Z,63
2018-07-25T12:43:51.520Z,63.1
2018-07-25T12:44:51.516Z,63.1
2018-07-25T12:45:54.477Z,63.1
2018-07-25T12:46:54.720Z,65.6
2018-07-25T12:47:55.734Z,62.8
2018-07-25T12:48:55.791Z,65.8
2018-07-25T12:50:00.178Z,65.2
2018-07-25T12:51:02.019Z,61.8
2018-07-25T12:52:02.279Z,62.5
2018-07-25T12:53:08.281Z,63
2018-07-25T12:54:09.217Z,62.6
2018-07-25T12:55:12.351Z,62.7
2018-07-25T12:56:15.064Z,62
2018-07-25T12:57:15.533Z,62.4
2018-07-25T12:58:15.812Z,62.3
2018-07-25T12:59:18.790Z,61.9
2018-07-25T13:00:18.820Z,62
2018-07-25T13:01:18.844Z,64.5
2018-07-25T13:02:19.112Z,61.8
2018-07-25T13:03:20.274Z,62.9
2018-07-25T13:04:23.484Z,63.4
2018-07-25T13:05:23.530Z,63.8
2018-07-25T13:06:29.003Z,61.8
2018-07-25T13:07:29.236Z,62.2
2018-07-25T13:08:30.927Z,62.5
2018-07-25T13:09:34.414Z,62.6
2018-07-25T13:10:36.488Z,63.3
2018-07-25T13:11:39.513Z,64
2018-07-25T13:12:39.517Z,62.2
2018-07-25T13:13:40.849Z,59.7
2018-07-25T13:14:44.693Z,60.1
2018-07-25T13:15:44.758Z,60.3
2018-07-25T13:16:47.458Z,59.1
2018-07-25T13:17:47.752Z,59.5
2018-07-25T13:18:48.053Z,59.7
2018-07-25T13:19:48.825Z,59.8
2018-07-25T13:20:51.588Z,59.8
2018-07-25T13:21:51.599Z,60.6
2018-07-25T13:22:52.224Z,58.9
2018-07-25T13:23:55.570Z,59.1
2018-07-25T13:24:59.380Z,60
2018-07-25T13:25:59.451Z,61.6
2018-07-25T13:27:01.002Z,62.6
2018-07-25T13:28:01.530Z,61.5
2018-07-25T13:29:01.577Z,61.2
2018-07-25T13:30:01.608Z,60.8
2018-07-25T13:31:01.845Z,60.7
2018-07-25T13:32:01.907Z,61
2018-07-25T13:33:04.410Z,60.3
2018-07-25T13:34:08.152Z,59.5